createdAt,value
2023-02-21T00:00:56.831Z,99491.25
2023-02-21T00:03:42.183Z,99522.88
2023-02-21T00:06:27.518Z,99500.28
2023-02-21T00:09:14.481Z,99509.41
2023-02-21T00:12:00.749Z,99479.50
2023-02-21T00:14:46.391Z,99487.84
2023-02-21T00:17:31.718Z,99495.53
2023-02-21T00:20:18.438Z,99483.94
2023-02-21T00:23:04.388Z,99506.41
2023-02-21T00:25:51.463Z,99484.81
2023-02-21T00:28:36.760Z,99467.31
2023-02-21T00:31:23.564Z,99473.84
2023-02-21T00:34:09.822Z,99486.91
2023-02-21T00:36:55.128Z,99484.28
2023-02-21T00:39:40.490Z,99498.50
2023-02-21T00:42:27.097Z,99481.81
2023-02-21T00:45:12.460Z,99483.44
2023-02-21T00:47:57.873Z,99475.94
2023-02-21T00:50:43.264Z,99496.91
2023-02-21T00:53:28.553Z,99495.34
2023-02-21T00:56:13.907Z,99473.44
2023-02-21T00:59:00.790Z,99481.16
2023-02-21T01:01:46.204Z,99491.06
2023-02-21T01:04:31.607Z,99469.44
2023-02-21T01:07:17.209Z,99483.44
2023-02-21T01:10:02.442Z,99469.13
2023-02-21T01:12:47.696Z,99475.72
2023-02-21T01:15:34.527Z,99494.72
2023-02-21T01:18:19.681Z,99479.84
2023-02-21T01:21:05.071Z,99484.16
2023-02-21T01:23:52.889Z,99515.00
2023-02-21T01:26:38.373Z,99470.06
2023-02-21T01:29:23.741Z,99498.34
2023-02-21T01:32:10.452Z,99485.97
2023-02-21T01:34:57.852Z,99476.66
2023-02-21T01:37:43.356Z,99469.25
2023-02-21T01:40:33.072Z,99473.34
2023-02-21T01:43:18.761Z,99465.16
2023-02-21T01:46:08.257Z,99472.47
2023-02-21T01:48:56.012Z,99458.47
2023-02-21T01:51:44.223Z,99468.19
2023-02-21T01:54:30.612Z,99414.16
2023-02-21T01:57:20.028Z,99444.84
2023-02-21T02:00:07.069Z,99438.41
2023-02-21T02:03:07.380Z,99421.72
2023-02-21T02:05:56.192Z,99458.28
2023-02-21T02:08:45.865Z,99454.91
2023-02-21T02:11:44.917Z,99442.41
2023-02-21T02:14:31.976Z,99424.56
2023-02-21T02:17:10.343Z,99426.13
2023-02-21T02:20:04.472Z,99442.91
2023-02-21T02:23:07.785Z,99412.00
2023-02-21T02:25:56.612Z,99421.16
2023-02-21T02:28:49.652Z,99440.22
2023-02-21T02:31:39.752Z,99445.97
2023-02-21T02:34:50.444Z,99441.63
2023-02-21T02:37:24.974Z,99428.94
2023-02-21T02:40:01.382Z,99455.44
2023-02-21T02:42:40.037Z,99460.41
2023-02-21T02:45:16.336Z,99472.06
2023-02-21T02:47:47.502Z,99470.41
2023-02-21T02:50:18.257Z,99468.63
2023-02-21T02:52:52.770Z,99461.00
2023-02-21T02:55:31.899Z,99425.22
2023-02-21T02:58:01.668Z,99436.13
2023-02-21T03:00:31.647Z,99432.84
2023-02-21T03:03:21.997Z,99443.66
2023-02-21T03:06:06.904Z,99457.28
2023-02-21T03:08:43.633Z,99438.91
2023-02-21T03:11:18.060Z,99435.63
2023-02-21T03:13:50.698Z,99440.03
2023-02-21T03:16:26.861Z,99435.19
2023-02-21T03:18:59.500Z,99419.31
2023-02-21T03:21:32.514Z,99445.22
2023-02-21T03:24:04.254Z,99413.63
2023-02-21T03:26:37.115Z,99419.53
2023-02-21T03:29:24.077Z,99412.31
2023-02-21T03:31:59.730Z,99422.47
2023-02-21T03:34:28.506Z,99415.84
2023-02-21T03:36:58.214Z,99421.69
2023-02-21T03:39:26.112Z,99401.81
2023-02-21T03:41:54.321Z,99409.41
2023-02-21T03:44:22.898Z,99406.94
2023-02-21T03:46:51.085Z,99421.88
2023-02-21T03:49:19.350Z,99448.31
2023-02-21T03:51:47.196Z,99422.38
2023-02-21T03:54:16.512Z,99428.25
2023-02-21T03:56:48.859Z,99433.88
2023-02-21T03:59:24.469Z,99432.34
2023-02-21T04:01:52.536Z,99413.47
2023-02-21T04:04:21.067Z,99436.25
2023-02-21T04:06:55.900Z,99418.81
2023-02-21T04:09:26.933Z,99447.88
2023-02-21T04:11:55.333Z,99422.28
2023-02-21T04:14:23.683Z,99433.88
2023-02-21T04:16:52.261Z,99438.78
2023-02-21T04:19:20.422Z,99431.25
2023-02-21T04:21:48.826Z,99425.69
2023-02-21T04:24:17.043Z,99438.31
2023-02-21T04:26:46.408Z,99439.03
2023-02-21T04:29:14.521Z,99452.09
2023-02-21T04:31:42.543Z,99435.41
2023-02-21T04:34:15.286Z,99453.63
2023-02-21T04:36:45.257Z,99449.38
2023-02-21T04:39:13.838Z,99440.19
2023-02-21T04:41:41.999Z,99433.50
2023-02-21T04:44:11.990Z,99428.66
2023-02-21T04:46:39.925Z,99437.81
2023-02-21T04:49:09.062Z,99417.81
2023-02-21T04:51:36.938Z,99416.09
2023-02-21T04:54:05.236Z,99408.69
2023-02-21T04:56:33.144Z,99408.72
2023-02-21T04:59:01.219Z,99420.53
2023-02-21T05:01:31.814Z,99426.47
2023-02-21T05:04:00.169Z,99424.84
2023-02-21T05:06:30.547Z,99422.38
2023-02-21T05:08:59.286Z,99417.28
2023-02-21T05:11:28.006Z,99418.75
2023-02-21T05:13:55.950Z,99409.63
2023-02-21T05:16:23.877Z,99410.34
2023-02-21T05:18:53.106Z,99409.31
2023-02-21T05:21:21.564Z,99423.47
2023-02-21T05:24:47.428Z,99421.81
2023-02-21T05:27:15.642Z,99409.28
2023-02-21T05:29:43.730Z,99405.94
2023-02-21T05:32:11.709Z,99415.00
2023-02-21T05:34:44.391Z,99420.56
2023-02-21T05:37:12.786Z,99427.13
2023-02-21T05:39:40.685Z,99429.47
2023-02-21T05:42:08.746Z,99427.75
2023-02-21T05:44:36.973Z,99424.22
2023-02-21T05:47:07.145Z,99436.66
2023-02-21T05:49:35.082Z,99440.78
2023-02-21T05:52:04.981Z,99446.59
2023-02-21T05:54:32.837Z,99454.06
2023-02-21T05:57:00.745Z,99438.22
2023-02-21T05:59:28.598Z,99447.47
2023-02-21T06:01:56.884Z,99455.06
2023-02-21T06:04:25.275Z,99449.13
2023-02-21T06:06:53.230Z,99450.78
2023-02-21T06:09:22.568Z,99460.00
2023-02-21T06:11:50.509Z,99455.91
2023-02-21T06:14:20.104Z,99474.38
2023-02-21T06:16:48.597Z,99471.88
2023-02-21T06:19:17.750Z,99481.81
2023-02-21T06:21:46.736Z,99469.19
2023-02-21T06:24:14.654Z,99485.81
2023-02-21T06:26:45.023Z,99476.63
2023-02-21T06:29:13.350Z,99483.28
2023-02-21T06:31:41.308Z,99489.19
2023-02-21T06:34:09.320Z,99492.50
2023-02-21T06:36:39.166Z,99487.56
2023-02-21T06:39:08.118Z,99489.34
2023-02-21T06:41:35.950Z,99498.53
2023-02-21T06:44:05.554Z,99497.59
2023-02-21T06:46:35.459Z,99485.00
2023-02-21T06:49:03.402Z,99486.84
2023-02-21T06:51:35.559Z,99469.47
2023-02-21T06:54:03.489Z,99477.84
2023-02-21T06:56:31.441Z,99486.22
2023-02-21T06:58:59.601Z,99479.53
2023-02-21T07:01:30.678Z,99475.44
2023-02-21T07:03:59.764Z,99494.63
2023-02-21T07:06:29.820Z,99484.53
2023-02-21T07:08:58.082Z,99478.47
2023-02-21T07:11:26.341Z,99483.66
2023-02-21T07:13:56.676Z,99504.31
2023-02-21T07:16:24.596Z,99506.22
2023-02-21T07:18:54.212Z,99510.34
2023-02-21T07:21:23.159Z,99504.41
2023-02-21T07:23:51.117Z,99504.41
2023-02-21T07:26:19.267Z,99511.19
2023-02-21T07:28:49.236Z,99498.00
2023-02-21T07:31:19.494Z,99529.16
2023-02-21T07:33:47.776Z,99515.41
2023-02-21T07:36:17.318Z,99505.78
2023-02-21T07:38:45.274Z,99498.34
2023-02-21T07:41:16.632Z,99492.50
2023-02-21T07:43:44.653Z,99512.69
2023-02-21T07:46:13.309Z,99500.38
2023-02-21T07:48:41.354Z,99508.88
2023-02-21T07:51:10.823Z,99482.31
2023-02-21T07:53:40.097Z,99484.16
2023-02-21T07:56:08.245Z,99479.34
2023-02-21T07:58:37.403Z,99483.66
2023-02-21T08:01:05.785Z,99497.03
2023-02-21T08:03:34.239Z,99483.63
2023-02-21T08:06:02.344Z,99498.50
2023-02-21T08:08:30.542Z,99494.38
2023-02-21T08:10:59.760Z,99479.34
2023-02-21T08:13:28.633Z,99496.28
2023-02-21T08:15:56.520Z,99489.72
2023-02-21T08:18:25.200Z,99483.94
2023-02-21T08:20:53.305Z,99479.09
2023-02-21T08:23:22.035Z,99479.00
2023-02-21T08:25:50.548Z,99485.69
2023-02-21T08:28:19.873Z,99470.56
2023-02-21T08:30:47.852Z,99482.97
2023-02-21T08:33:15.744Z,99475.97
2023-02-21T08:35:43.620Z,99490.38
2023-02-21T08:38:11.501Z,99461.16
2023-02-21T08:40:39.383Z,99481.97
2023-02-21T08:43:07.455Z,99500.25
2023-02-21T08:45:36.693Z,99502.75
2023-02-21T08:48:05.535Z,99451.59
2023-02-21T08:50:33.491Z,99456.88
2023-02-21T08:53:01.357Z,99461.94
2023-02-21T08:55:29.275Z,99491.03
2023-02-21T08:57:57.283Z,99493.56
2023-02-21T09:00:28.420Z,99480.25
2023-02-21T09:02:59.637Z,99491.16
2023-02-21T09:05:29.537Z,99486.16
2023-02-21T09:08:01.282Z,99500.47
2023-02-21T09:10:31.677Z,99475.41
2023-02-21T09:12:59.544Z,99492.31
2023-02-21T09:15:27.636Z,99516.59
2023-02-21T09:17:57.438Z,99502.41
2023-02-21T09:20:26.801Z,99516.03
2023-02-21T09:22:55.490Z,99491.09
2023-02-21T09:25:25.467Z,99494.50
2023-02-21T09:27:54.711Z,99504.59
2023-02-21T09:30:26.585Z,99486.19
2023-02-21T09:32:55.527Z,99496.47
2023-02-21T09:35:25.040Z,99498.13
2023-02-21T09:37:52.999Z,99495.78
2023-02-21T09:40:30.309Z,99496.69
2023-02-21T09:43:00.949Z,99480.09
2023-02-21T09:45:33.216Z,99489.41
2023-02-21T09:48:06.428Z,99485.28
2023-02-21T09:50:42.297Z,99484.59
2023-02-21T09:53:15.423Z,99494.72
2023-02-21T09:55:44.204Z,99522.25
2023-02-21T09:58:17.390Z,99509.78
2023-02-21T10:00:46.867Z,99500.66
2023-02-21T10:03:39.606Z,99510.72
2023-02-21T10:06:16.772Z,99513.38
2023-02-21T10:08:51.284Z,99512.63
2023-02-21T10:11:34.815Z,99512.66
2023-02-21T10:14:15.442Z,99518.59
2023-02-21T10:16:47.761Z,99521.13
2023-02-21T10:19:22.631Z,99506.16
2023-02-21T10:21:51.862Z,99509.56
2023-02-21T10:24:23.757Z,99512.13
2023-02-21T10:26:58.094Z,99515.59
2023-02-21T10:29:31.692Z,99497.19
2023-02-21T10:32:04.283Z,99508.88
2023-02-21T10:34:34.656Z,99507.22
2023-02-21T10:37:19.195Z,99490.53
2023-02-21T10:39:52.339Z,99484.72
2023-02-21T10:42:29.919Z,99485.72
2023-02-21T10:45:00.061Z,99500.09
2023-02-21T10:47:38.438Z,99497.59
2023-02-21T10:50:08.385Z,99511.78
2023-02-21T10:52:43.219Z,99500.09
2023-02-21T10:55:31.755Z,99503.59
2023-02-21T10:58:08.644Z,99508.63
2023-02-21T11:00:38.830Z,99503.72
2023-02-21T11:03:13.956Z,99522.09
2023-02-21T11:05:42.036Z,99514.56
2023-02-21T11:08:11.786Z,99506.97
2023-02-21T11:10:42.112Z,99517.06
2023-02-21T11:13:16.545Z,99517.06
2023-02-21T11:15:45.553Z,99509.56
2023-02-21T11:18:16.801Z,99504.56
2023-02-21T11:20:45.311Z,99498.69
2023-02-21T11:23:23.198Z,99499.44
2023-02-21T11:25:55.867Z,99488.56
2023-02-21T11:28:24.758Z,99501.91
2023-02-21T11:31:07.531Z,99486.97
2023-02-21T11:33:39.922Z,99477.00
2023-02-21T11:36:14.554Z,99492.09
2023-02-21T11:38:46.082Z,99486.25
2023-02-21T11:41:22.582Z,99494.09
2023-02-21T11:43:51.659Z,99470.72
2023-02-21T11:46:31.039Z,99471.59
2023-02-21T11:49:04.533Z,99475.78
2023-02-21T11:51:36.302Z,99484.34
2023-02-21T11:54:07.716Z,99454.97
2023-02-21T11:56:43.188Z,99480.91
2023-02-21T11:59:23.918Z,99460.84
2023-02-21T12:02:00.627Z,99457.56
2023-02-21T12:04:47.321Z,99457.69
2023-02-21T12:07:20.042Z,99444.34
2023-02-21T12:09:57.215Z,99446.19
2023-02-21T12:12:38.423Z,99451.47
2023-02-21T12:15:22.138Z,99440.59
2023-02-21T12:18:20.376Z,99451.53
2023-02-21T12:21:04.037Z,99454.03
2023-02-21T12:23:45.312Z,99440.06
2023-02-21T12:26:28.697Z,99453.53
2023-02-21T12:29:21.322Z,99467.16
2023-02-21T12:32:09.408Z,99444.66
2023-02-21T12:34:52.322Z,99449.72
2023-02-21T12:37:33.187Z,99435.56
2023-02-21T12:40:15.169Z,99428.88
2023-02-21T12:42:57.552Z,99413.00
2023-02-21T12:45:40.040Z,99415.44
2023-02-21T12:48:17.895Z,99407.06
2023-02-21T12:50:51.006Z,99382.69
2023-02-21T12:53:21.627Z,99420.50
2023-02-21T12:55:53.542Z,99415.41
2023-02-21T12:58:29.129Z,99414.44
2023-02-21T13:01:02.996Z,99442.09
2023-02-21T13:03:44.374Z,99418.66
2023-02-21T13:06:19.509Z,99390.25
2023-02-21T13:08:57.456Z,99400.31
2023-02-21T13:11:29.909Z,99417.88
2023-02-21T13:14:01.406Z,99419.50
2023-02-21T13:16:29.515Z,99413.50
2023-02-21T13:19:03.645Z,99393.22
2023-02-21T13:21:49.314Z,99430.22
2023-02-21T13:24:33.435Z,99419.22
2023-02-21T13:27:32.965Z,99430.09
2023-02-21T13:30:12.439Z,99414.22
2023-02-21T13:32:51.088Z,99421.78
2023-02-21T13:35:22.466Z,99418.31
2023-02-21T13:37:52.968Z,99429.22
2023-02-21T13:40:26.267Z,99424.94
2023-02-21T13:43:04.035Z,99426.63
2023-02-21T13:45:33.813Z,99432.44
2023-02-21T13:48:31.767Z,99421.50
2023-02-21T13:51:01.104Z,99427.47
2023-02-21T13:53:33.997Z,99433.16
2023-02-21T13:56:41.224Z,99424.69
2023-02-21T13:59:34.710Z,99432.13
2023-02-21T14:02:23.112Z,99438.66
2023-02-21T14:05:03.887Z,99439.47
2023-02-21T14:07:57.832Z,99436.06
2023-02-21T14:10:31.727Z,99447.88
2023-02-21T14:13:02.656Z,99447.00
2023-02-21T14:15:43.103Z,99437.75
2023-02-21T14:18:26.291Z,99447.72
2023-02-21T14:20:56.538Z,99445.25
2023-02-21T14:23:32.366Z,99441.94
2023-02-21T14:26:03.315Z,99446.06
2023-02-21T14:29:05.624Z,99453.59
2023-02-21T14:31:58.352Z,99445.97
2023-02-21T14:34:35.963Z,99440.06
2023-02-21T14:37:07.171Z,99443.38
2023-02-21T14:39:40.690Z,99449.19
2023-02-21T14:42:25.316Z,99449.97
2023-02-21T14:45:18.036Z,99456.63
2023-02-21T14:48:16.928Z,99461.59
2023-02-21T14:51:10.349Z,99462.41
2023-02-21T14:54:14.269Z,99442.25
2023-02-21T14:57:03.859Z,99457.34
2023-02-21T14:59:46.277Z,99457.34
2023-02-21T15:02:24.994Z,99452.28
2023-02-21T15:04:59.798Z,99456.47
2023-02-21T15:07:34.834Z,99458.09
2023-02-21T15:10:15.742Z,99456.44
2023-02-21T15:12:46.629Z,99460.59
2023-02-21T15:15:21.496Z,99454.72
2023-02-21T15:17:59.608Z,99465.56
2023-02-21T15:20:30.070Z,99459.63
2023-02-21T15:23:02.774Z,99466.31
2023-02-21T15:25:30.854Z,99464.66
2023-02-21T15:28:07.406Z,99452.09
2023-02-21T15:30:41.782Z,99463.81
2023-02-21T15:33:17.792Z,99452.97
2023-02-21T15:35:50.710Z,99454.56
2023-02-21T15:38:24.533Z,99463.81
2023-02-21T15:40:57.243Z,99446.97
2023-02-21T15:43:43.582Z,99438.47
2023-02-21T15:46:16.540Z,99459.56
2023-02-21T15:48:44.865Z,99453.66
2023-02-21T15:51:14.351Z,99440.25
2023-02-21T15:53:43.822Z,99448.63
2023-02-21T15:56:21.564Z,99457.88
2023-02-21T15:59:13.338Z,99453.66
2023-02-21T16:01:41.813Z,99451.97
2023-02-21T16:04:18.480Z,99447.78
2023-02-21T16:06:49.772Z,99442.88
2023-02-21T16:09:25.557Z,99457.09
2023-02-21T16:11:56.373Z,99457.09
2023-02-21T16:14:29.658Z,99460.44
2023-02-21T16:17:09.318Z,99456.22
2023-02-21T16:19:38.009Z,99453.72
2023-02-21T16:22:25.893Z,99459.56
2023-02-21T16:25:13.092Z,99466.19
2023-02-21T16:27:42.147Z,99462.81
2023-02-21T16:30:14.862Z,99471.19
2023-02-21T16:32:45.015Z,99470.34
2023-02-21T16:35:20.503Z,99477.00
2023-02-21T16:37:50.450Z,99475.34
2023-02-21T16:40:25.061Z,99479.53
2023-02-21T16:42:54.729Z,99475.34
2023-02-21T16:45:22.695Z,99469.56
2023-02-21T16:47:56.487Z,99478.78
2023-02-21T16:50:29.231Z,99479.69
2023-02-21T16:52:57.232Z,99473.00
2023-02-21T16:55:28.820Z,99458.72
2023-02-21T16:58:00.393Z,99480.63
2023-02-21T17:00:28.612Z,99480.66
2023-02-21T17:02:56.640Z,99483.94
2023-02-21T17:05:24.872Z,99487.25
2023-02-21T17:07:54.636Z,99484.75
2023-02-21T17:11:19.773Z,99491.38
2023-02-21T17:13:49.041Z,99493.84
2023-02-21T17:16:17.088Z,99485.44
2023-02-21T17:18:45.966Z,99485.38
2023-02-21T17:21:14.387Z,99484.53
2023-02-21T17:23:42.887Z,99490.38
2023-02-21T17:26:12.125Z,99498.66
2023-02-21T17:28:40.232Z,99483.38
2023-02-21T17:31:09.631Z,99495.16
2023-02-21T17:33:38.242Z,99501.00
2023-02-21T17:36:06.604Z,99505.25
2023-02-21T17:38:34.585Z,99505.28
2023-02-21T17:41:02.487Z,99518.63
2023-02-21T17:43:30.988Z,99522.78
2023-02-21T17:45:58.906Z,99511.91
2023-02-21T17:48:28.178Z,99514.47
2023-02-21T17:50:58.186Z,99516.16
2023-02-21T17:53:28.211Z,99521.16
2023-02-21T17:55:56.293Z,99518.63
2023-02-21T17:58:24.210Z,99516.94
2023-02-21T18:00:55.350Z,99514.44
2023-02-21T18:03:23.307Z,99525.28
2023-02-21T18:05:52.810Z,99521.94
2023-02-21T18:08:20.812Z,99521.94
2023-02-21T18:10:48.654Z,99521.94
2023-02-21T18:13:22.090Z,99516.94
2023-02-21T18:15:50.269Z,99510.25
2023-02-21T18:18:18.240Z,99511.06
2023-02-21T18:20:46.179Z,99526.13
2023-02-21T18:23:15.506Z,99516.88
2023-02-21T18:25:43.383Z,99511.75
2023-02-21T18:28:11.577Z,99521.81
2023-02-21T18:30:39.498Z,99522.63
2023-02-21T18:33:07.719Z,99523.47
2023-02-21T18:35:35.654Z,99525.94
2023-02-21T18:38:03.637Z,99519.25
2023-02-21T18:40:37.774Z,99526.78
2023-02-21T18:43:06.887Z,99521.75
2023-02-21T18:45:35.156Z,99526.75
2023-02-21T18:48:03.306Z,99526.75
2023-02-21T18:50:31.138Z,99531.69
2023-02-21T18:52:59.666Z,99519.97
2023-02-21T18:55:27.579Z,99530.00
2023-02-21T18:57:57.271Z,99529.09
2023-02-21T19:00:26.324Z,99524.09
2023-02-21T19:02:54.269Z,99529.09
2023-02-21T19:05:25.149Z,99529.84
2023-02-21T19:07:54.044Z,99531.53
2023-02-21T19:10:25.935Z,99534.78
2023-02-21T19:12:53.889Z,99534.78
2023-02-21T19:15:23.156Z,99537.28
2023-02-21T19:17:51.144Z,99531.41
2023-02-21T19:20:20.516Z,99541.44
2023-02-21T19:22:48.430Z,99541.44
2023-02-21T19:25:17.586Z,99544.75
2023-02-21T19:27:46.320Z,99543.91
2023-02-21T19:30:15.582Z,99546.38
2023-02-21T19:32:44.825Z,99553.06
2023-02-21T19:35:12.819Z,99545.47
2023-02-21T19:37:40.669Z,99548.81
2023-02-21T19:40:09.471Z,99549.63
2023-02-21T19:42:37.399Z,99540.38
2023-02-21T19:45:09.720Z,99537.91
2023-02-21T19:47:37.609Z,99538.72
2023-02-21T19:50:07.748Z,99544.56
2023-02-21T19:52:35.587Z,99542.78
2023-02-21T19:55:04.109Z,99542.72
2023-02-21T19:57:31.985Z,99545.19
2023-02-21T19:59:59.818Z,99540.91
2023-02-21T20:02:28.102Z,99539.16
2023-02-21T20:04:55.992Z,99551.69
2023-02-21T20:07:25.241Z,99545.72
2023-02-21T20:09:53.133Z,99557.34
2023-02-21T20:12:22.873Z,99545.59
2023-02-21T20:14:51.105Z,99552.16
2023-02-21T20:17:19.096Z,99560.47
2023-02-21T20:19:47.055Z,99556.34
2023-02-21T20:22:14.945Z,99558.81
2023-02-21T20:24:45.725Z,99555.44
2023-02-21T20:27:14.233Z,99554.44
2023-02-21T20:29:42.406Z,99565.16
2023-02-21T20:32:11.115Z,99556.63
2023-02-21T20:34:39.849Z,99558.19
2023-02-21T20:37:07.765Z,99549.63
2023-02-21T20:39:36.219Z,99552.88
2023-02-21T20:42:06.929Z,99555.25
2023-02-21T20:44:36.802Z,99558.44
2023-02-21T20:47:06.696Z,99565.78
2023-02-21T20:49:35.220Z,99564.78
2023-02-21T20:52:03.767Z,99565.41
2023-02-21T20:54:31.706Z,99559.47
2023-02-21T20:56:59.559Z,99563.66
2023-02-21T20:59:31.395Z,99549.97
2023-02-21T21:02:00.230Z,99567.66
2023-02-21T21:04:30.003Z,99570.94
2023-02-21T21:07:00.024Z,99575.09
2023-02-21T21:09:34.153Z,99563.28
2023-02-21T21:12:02.612Z,99575.00
2023-02-21T21:14:34.028Z,99553.69
2023-02-21T21:17:03.134Z,99573.22
2023-02-21T21:19:34.064Z,99573.22
2023-02-21T21:22:03.145Z,99570.72
2023-02-21T21:24:32.066Z,99574.97
2023-02-21T21:27:07.002Z,99582.47
2023-02-21T21:29:38.855Z,99577.69
2023-02-21T21:32:09.326Z,99584.59
2023-02-21T21:34:41.945Z,99577.31
2023-02-21T21:37:10.214Z,99584.13
2023-02-21T21:39:38.700Z,99575.91
2023-02-21T21:42:09.604Z,99573.47
2023-02-21T21:53:07.523Z,99588.03
2023-02-21T21:55:36.150Z,99577.16
2023-02-21T21:58:10.477Z,99571.25
2023-02-21T22:00:42.118Z,99583.03
2023-02-21T22:03:14.247Z,99581.31
2023-02-21T22:05:44.314Z,99582.97
2023-02-21T22:08:16.502Z,99580.53
2023-02-21T22:10:45.496Z,99571.50
2023-02-21T22:13:14.636Z,99574.84
2023-02-21T22:15:44.511Z,99575.66
2023-02-21T22:18:14.226Z,99591.63
2023-02-21T22:20:42.870Z,99579.09
2023-02-21T22:23:11.499Z,99578.31
2023-02-21T22:25:40.740Z,99575.84
2023-02-21T22:28:13.217Z,99581.72
2023-02-21T22:30:41.676Z,99588.31
2023-02-21T22:33:13.492Z,99587.44
2023-02-21T22:35:42.124Z,99591.63
2023-02-21T22:38:14.394Z,99583.19
2023-02-21T22:40:44.424Z,99588.31
2023-02-21T22:43:13.633Z,99588.31
2023-02-21T22:45:44.221Z,99592.56
2023-02-21T22:48:13.993Z,99568.97
2023-02-21T22:50:46.974Z,99587.44
2023-02-21T22:53:18.823Z,99586.59
2023-02-21T22:55:51.947Z,99584.88
2023-02-21T22:58:21.062Z,99589.81
2023-02-21T23:00:50.037Z,99592.25
2023-02-21T23:03:18.164Z,99596.34
2023-02-21T23:05:47.488Z,99594.59
2023-02-21T23:08:16.934Z,99596.31
2023-02-21T23:10:45.509Z,99603.78
2023-02-21T23:13:17.828Z,99604.50
2023-02-21T23:15:46.560Z,99601.13
2023-02-21T23:18:20.628Z,99591.91
2023-02-21T23:20:52.427Z,99595.22
2023-02-21T23:23:21.043Z,99594.28
2023-02-21T23:25:49.004Z,99590.81
2023-02-21T23:28:18.446Z,99594.22
2023-02-21T23:30:48.879Z,99595.81
2023-02-21T23:33:18.505Z,99594.97
2023-02-21T23:35:49.279Z,99583.88
2023-02-21T23:38:19.901Z,99607.53
2023-02-21T23:40:55.889Z,99604.22
2023-02-21T23:43:29.541Z,99596.75
2023-02-21T23:45:58.507Z,99598.44
2023-02-21T23:48:26.377Z,99599.28
2023-02-21T23:50:57.573Z,99594.28
2023-02-21T23:53:27.411Z,99600.09
2023-02-21T23:56:00.572Z,99602.69
2023-02-21T23:58:32.441Z,99604.38
